createdAt,value
2022-11-08T00:02:06.929Z,95452.19
2022-11-08T00:04:34.774Z,95435.31
2022-11-08T00:07:19.769Z,95460.66
2022-11-08T00:10:04.960Z,95446.09
2022-11-08T00:12:50.436Z,95455.97
2022-11-08T00:15:17.469Z,95455.06
2022-11-08T00:17:44.460Z,95462.03
2022-11-08T00:20:11.502Z,95453.50
2022-11-08T00:22:38.152Z,95457.00
2022-11-08T00:25:05.315Z,95434.25
2022-11-08T00:27:31.997Z,95449.09
2022-11-08T00:29:58.536Z,95444.41
2022-11-08T00:32:26.301Z,95455.19
2022-11-08T00:34:53.192Z,95455.56
2022-11-08T00:37:21.602Z,95444.13
2022-11-08T00:39:49.163Z,95449.81
2022-11-08T00:42:16.155Z,95451.25
2022-11-08T00:44:42.742Z,95436.34
2022-11-08T00:47:09.759Z,95454.09
2022-11-08T00:49:36.403Z,95428.44
2022-11-08T00:52:03.497Z,95435.06
2022-11-08T00:54:30.347Z,95454.22
2022-11-08T00:56:56.967Z,95439.44
2022-11-08T00:59:23.769Z,95447.00
2022-11-08T01:01:50.604Z,95440.81
2022-11-08T01:04:19.027Z,95448.97
2022-11-08T01:06:45.986Z,95447.69
2022-11-08T01:09:13.557Z,95447.84
2022-11-08T01:11:45.331Z,95447.44
2022-11-08T01:14:13.563Z,95430.59
2022-11-08T01:16:41.137Z,95443.84
2022-11-08T01:19:08.194Z,95432.66
2022-11-08T01:21:35.119Z,95426.72
2022-11-08T01:24:01.864Z,95428.84
2022-11-08T01:26:29.458Z,95444.28
2022-11-08T01:28:57.451Z,95447.31
2022-11-08T01:31:29.644Z,95436.19
2022-11-08T01:33:57.150Z,95454.34
2022-11-08T01:36:26.106Z,95459.31
2022-11-08T01:38:54.089Z,95439.25
2022-11-08T01:41:23.623Z,95450.50
2022-11-08T01:43:56.312Z,95412.31
2022-11-08T01:46:38.122Z,95450.03
2022-11-08T01:49:15.682Z,95446.78
2022-11-08T01:52:15.169Z,95449.97
2022-11-08T01:55:15.922Z,95445.66
2022-11-08T01:57:52.682Z,95451.38
2022-11-08T02:00:19.913Z,95442.00
2022-11-08T02:02:54.745Z,95456.50
2022-11-08T02:05:27.344Z,95439.00
2022-11-08T02:08:11.386Z,95453.38
2022-11-08T02:10:44.946Z,95441.66
2022-11-08T02:13:15.680Z,95417.91
2022-11-08T02:15:43.401Z,95446.78
2022-11-08T02:18:11.514Z,95453.50
2022-11-08T02:20:40.602Z,95448.28
2022-11-08T02:23:45.282Z,95444.13
2022-11-08T02:26:13.005Z,95435.53
2022-11-08T02:28:40.950Z,95443.31
2022-11-08T02:31:12.827Z,95439.72
2022-11-08T02:33:39.680Z,95436.28
2022-11-08T02:36:08.296Z,95434.00
2022-11-08T02:38:43.228Z,95456.16
2022-11-08T02:41:09.880Z,95440.75
2022-11-08T02:43:36.779Z,95440.44
2022-11-08T02:46:03.742Z,95442.72
2022-11-08T02:48:30.595Z,95439.28
2022-11-08T02:50:57.764Z,95437.97
2022-11-08T02:53:24.409Z,95427.22
2022-11-08T02:55:51.293Z,95444.47
2022-11-08T02:58:18.251Z,95438.28
2022-11-08T03:00:45.111Z,95418.34
2022-11-08T03:03:11.793Z,95434.59
2022-11-08T03:05:38.456Z,95440.34
2022-11-08T03:08:05.215Z,95431.31
2022-11-08T03:10:32.006Z,95438.00
2022-11-08T03:13:01.352Z,95445.00
2022-11-08T03:15:29.231Z,95439.41
2022-11-08T03:17:56.919Z,95453.38
2022-11-08T03:20:25.333Z,95455.31
2022-11-08T03:23:03.585Z,95458.34
2022-11-08T03:25:30.528Z,95459.34
2022-11-08T03:28:02.949Z,95449.31
2022-11-08T03:30:29.606Z,95445.97
2022-11-08T03:32:56.414Z,95449.44
2022-11-08T03:35:23.144Z,95457.34
2022-11-08T03:37:51.605Z,95459.78
2022-11-08T03:40:19.241Z,95433.44
2022-11-08T03:42:46.164Z,95458.69
2022-11-08T03:45:13.669Z,95458.75
2022-11-08T03:47:42.718Z,95447.25
2022-11-08T03:50:10.673Z,95441.66
2022-11-08T03:52:49.966Z,95446.97
2022-11-08T03:55:18.550Z,95459.25
2022-11-08T03:57:47.517Z,95425.25
2022-11-08T04:00:16.131Z,95460.22
2022-11-08T04:02:43.097Z,95430.91
2022-11-08T04:05:11.826Z,95462.25
2022-11-08T04:07:38.944Z,95450.78
2022-11-08T04:10:07.882Z,95459.00
2022-11-08T04:12:53.069Z,95422.28
2022-11-08T04:15:22.705Z,95440.53
2022-11-08T04:18:10.578Z,95450.09
2022-11-08T04:21:00.239Z,95425.81
2022-11-08T04:23:28.750Z,95429.78
2022-11-08T04:25:57.714Z,95434.38
2022-11-08T04:28:26.317Z,95448.53
2022-11-08T04:30:54.862Z,95450.53
2022-11-08T04:33:24.412Z,95445.91
2022-11-08T04:35:53.341Z,95451.41
2022-11-08T04:38:20.916Z,95445.44
2022-11-08T04:40:48.083Z,95440.38
2022-11-08T04:43:15.058Z,95452.56
2022-11-08T04:45:41.742Z,95446.34
2022-11-08T04:48:08.893Z,95438.28
2022-11-08T04:50:36.621Z,95468.03
2022-11-08T04:53:04.059Z,95444.00
2022-11-08T04:55:30.722Z,95445.28
2022-11-08T04:57:58.994Z,95450.31
2022-11-08T05:00:26.556Z,95468.94
2022-11-08T05:02:53.841Z,95431.72
2022-11-08T05:05:20.718Z,95480.16
2022-11-08T05:07:47.375Z,95471.34
2022-11-08T05:10:14.195Z,95471.00
2022-11-08T05:12:40.873Z,95436.34
2022-11-08T05:15:08.536Z,95472.19
2022-11-08T05:17:35.268Z,95464.16
2022-11-08T05:20:20.840Z,95467.19
2022-11-08T05:23:05.935Z,95469.78
2022-11-08T05:25:32.960Z,95459.09
2022-11-08T05:27:59.580Z,95478.34
2022-11-08T05:30:26.602Z,95464.69
2022-11-08T05:32:53.457Z,95473.84
2022-11-08T05:35:21.747Z,95469.31
2022-11-08T05:37:48.811Z,95455.06
2022-11-08T05:40:15.638Z,95475.66
2022-11-08T05:42:42.683Z,95481.75
2022-11-08T05:45:09.841Z,95486.72
2022-11-08T05:47:37.127Z,95469.16
2022-11-08T05:50:04.355Z,95465.50
2022-11-08T05:52:31.166Z,95468.22
2022-11-08T05:54:58.049Z,95477.78
2022-11-08T05:57:24.673Z,95492.22
2022-11-08T05:59:51.557Z,95484.31
2022-11-08T06:02:18.616Z,95493.56
2022-11-08T06:04:45.422Z,95469.13
2022-11-08T06:07:12.133Z,95486.56
2022-11-08T06:09:40.095Z,95498.44
2022-11-08T06:12:08.008Z,95475.63
2022-11-08T06:14:34.893Z,95509.03
2022-11-08T06:17:01.607Z,95514.47
2022-11-08T06:19:28.471Z,95502.88
2022-11-08T06:21:55.075Z,95513.28
2022-11-08T06:24:21.653Z,95513.91
2022-11-08T06:26:48.439Z,95494.75
2022-11-08T06:29:15.107Z,95512.41
2022-11-08T06:31:43.165Z,95528.06
2022-11-08T06:34:10.608Z,95514.69
2022-11-08T06:36:37.327Z,95505.28
2022-11-08T06:39:04.135Z,95530.53
2022-11-08T06:41:30.781Z,95525.56
2022-11-08T06:43:57.356Z,95524.91
2022-11-08T06:46:24.448Z,95527.81
2022-11-08T06:48:51.350Z,95531.59
2022-11-08T06:51:18.756Z,95535.09
2022-11-08T06:53:45.433Z,95519.28
2022-11-08T06:56:12.560Z,95534.78
2022-11-08T06:58:39.678Z,95534.94
2022-11-08T07:01:09.063Z,95529.31
2022-11-08T07:03:35.774Z,95538.13
2022-11-08T07:06:04.428Z,95525.69
2022-11-08T07:08:32.305Z,95528.59
2022-11-08T07:10:59.622Z,95532.09
2022-11-08T07:13:26.365Z,95531.91
2022-11-08T07:15:53.257Z,95540.16
2022-11-08T07:18:20.163Z,95526.03
2022-11-08T07:20:47.284Z,95549.41
2022-11-08T07:23:13.970Z,95544.38
2022-11-08T07:25:40.959Z,95523.88
2022-11-08T07:28:17.755Z,95548.19
2022-11-08T07:30:46.265Z,95560.31
2022-11-08T07:33:13.649Z,95540.59
2022-11-08T07:35:40.612Z,95538.91
2022-11-08T07:38:07.863Z,95546.50
2022-11-08T07:40:35.313Z,95555.75
2022-11-08T07:43:17.514Z,95557.72
2022-11-08T07:45:44.194Z,95546.59
2022-11-08T07:48:13.800Z,95544.03
2022-11-08T07:50:43.789Z,95542.78
2022-11-08T07:53:11.265Z,95546.06
2022-11-08T07:55:38.985Z,95540.13
2022-11-08T07:58:06.126Z,95544.53
2022-11-08T08:00:36.531Z,95548.78
2022-11-08T08:03:05.118Z,95554.44
2022-11-08T08:05:35.616Z,95530.81
2022-11-08T08:08:03.073Z,95543.22
2022-11-08T08:10:31.752Z,95545.50
2022-11-08T08:12:58.639Z,95549.09
2022-11-08T08:15:26.593Z,95519.13
2022-11-08T08:17:53.626Z,95541.22
2022-11-08T08:20:20.233Z,95540.69
2022-11-08T08:22:49.040Z,95543.16
2022-11-08T08:25:16.824Z,95537.13
2022-11-08T08:27:50.965Z,95551.59
2022-11-08T08:30:18.661Z,95532.81
2022-11-08T08:32:53.592Z,95537.47
2022-11-08T08:35:29.646Z,95538.66
2022-11-08T08:38:00.654Z,95553.19
2022-11-08T08:40:27.957Z,95544.34
2022-11-08T08:42:54.645Z,95547.56
2022-11-08T08:45:21.215Z,95542.38
2022-11-08T08:47:53.219Z,95548.84
2022-11-08T08:50:20.977Z,95561.72
2022-11-08T08:52:48.064Z,95571.09
2022-11-08T08:55:15.465Z,95573.53
2022-11-08T08:57:46.640Z,95562.44
2022-11-08T09:03:06.609Z,95554.41
2022-11-08T09:05:34.369Z,95552.44
2022-11-08T09:08:01.508Z,95547.56
2022-11-08T09:10:28.937Z,95555.75
2022-11-08T09:12:55.957Z,95550.97
2022-11-08T09:15:22.562Z,95522.69
2022-11-08T09:17:49.148Z,95538.66
2022-11-08T09:20:16.405Z,95553.56
2022-11-08T09:22:43.115Z,95562.81
2022-11-08T09:25:10.743Z,95558.41
2022-11-08T09:27:37.655Z,95559.00
2022-11-08T09:30:05.387Z,95555.25
2022-11-08T09:32:46.519Z,95547.47
2022-11-08T09:35:18.902Z,95545.97
2022-11-08T09:37:48.710Z,95553.13
2022-11-08T09:40:48.995Z,95554.22
2022-11-08T09:43:41.929Z,95553.22
2022-11-08T09:46:17.547Z,95538.69
2022-11-08T09:48:45.256Z,95545.16
2022-11-08T09:51:21.288Z,95547.41
2022-11-08T09:53:55.079Z,95537.81
2022-11-08T09:56:21.663Z,95539.22
2022-11-08T09:59:11.626Z,95543.34
2022-11-08T10:01:39.084Z,95535.81
2022-11-08T10:04:19.365Z,95539.69
2022-11-08T10:07:24.775Z,95514.22
2022-11-08T10:10:17.140Z,95530.09
2022-11-08T10:12:49.612Z,95520.16
2022-11-08T10:15:31.314Z,95521.41
2022-11-08T10:18:04.194Z,95523.84
2022-11-08T10:20:52.760Z,95522.41
2022-11-08T10:23:42.284Z,95515.59
2022-11-08T10:26:26.739Z,95513.84
2022-11-08T10:29:08.890Z,95507.13
2022-11-08T10:31:38.757Z,95511.69
2022-11-08T10:34:15.407Z,95503.59
2022-11-08T10:36:45.475Z,95491.50
2022-11-08T10:39:23.282Z,95478.31
2022-11-08T10:42:22.237Z,95496.09
2022-11-08T10:44:48.992Z,95490.13
2022-11-08T10:47:34.413Z,95479.94
2022-11-08T10:50:04.298Z,95478.47
2022-11-08T10:52:42.435Z,95483.22
2022-11-08T10:55:22.718Z,95491.75
2022-11-08T10:57:49.446Z,95482.72
2022-11-08T11:00:24.671Z,95481.00
2022-11-08T11:03:06.342Z,95478.09
2022-11-08T11:05:35.688Z,95460.28
2022-11-08T11:08:10.159Z,95465.09
2022-11-08T11:10:48.651Z,95471.38
2022-11-08T11:15:57.493Z,95470.72
2022-11-08T11:18:30.749Z,95473.38
2022-11-08T11:21:10.410Z,95457.72
2022-11-08T11:23:47.475Z,95466.75
2022-11-08T11:26:32.194Z,95464.66
2022-11-08T11:29:03.952Z,95469.69
2022-11-08T11:31:36.911Z,95463.19
2022-11-08T11:34:18.841Z,95460.84
2022-11-08T11:36:48.390Z,95467.66
2022-11-08T11:39:46.118Z,95464.34
2022-11-08T11:42:48.580Z,95453.28
2022-11-08T11:45:21.651Z,95459.53
2022-11-08T11:47:55.261Z,95450.75
2022-11-08T11:50:38.393Z,95453.34
2022-11-08T11:53:29.863Z,95449.66
2022-11-08T11:56:11.715Z,95454.78
2022-11-08T11:58:38.279Z,95445.94
2022-11-08T12:01:17.902Z,95442.19
2022-11-08T12:03:47.454Z,95446.53
2022-11-08T12:06:51.673Z,95446.38
2022-11-08T12:09:32.321Z,95443.06
2022-11-08T12:12:16.058Z,95437.63
2022-11-08T12:14:57.394Z,95430.97
2022-11-08T12:17:33.841Z,95432.94
2022-11-08T12:20:26.871Z,95428.72
2022-11-08T12:23:03.029Z,95412.47
2022-11-08T12:25:45.660Z,95414.72
2022-11-08T12:28:42.321Z,95425.72
2022-11-08T12:31:24.282Z,95426.16
2022-11-08T12:34:00.910Z,95422.97
2022-11-08T12:36:39.764Z,95416.88
2022-11-08T12:39:27.813Z,95424.63
2022-11-08T12:42:12.864Z,95422.81
2022-11-08T12:45:01.265Z,95417.78
2022-11-08T12:47:36.610Z,95418.97
2022-11-08T12:50:30.008Z,95421.66
2022-11-08T12:53:28.194Z,95417.06
2022-11-08T12:55:57.370Z,95431.50
2022-11-08T12:58:34.418Z,95421.38
2022-11-08T13:01:13.244Z,95415.31
2022-11-08T13:03:42.993Z,95422.97
2022-11-08T13:06:20.374Z,95412.31
2022-11-08T13:08:53.933Z,95410.00
2022-11-08T13:11:43.492Z,95415.63
2022-11-08T13:14:17.673Z,95413.91
2022-11-08T13:17:05.536Z,95400.50
2022-11-08T13:19:47.340Z,95421.66
2022-11-08T13:22:29.284Z,95412.03
2022-11-08T13:25:00.737Z,95418.56
2022-11-08T13:27:41.422Z,95405.50
2022-11-08T13:30:16.963Z,95412.47
2022-11-08T13:32:43.504Z,95418.81
2022-11-08T13:35:28.862Z,95423.06
2022-11-08T13:38:23.530Z,95418.28
2022-11-08T13:40:59.300Z,95411.81
2022-11-08T13:43:31.424Z,95427.69
2022-11-08T13:46:20.078Z,95429.31
2022-11-08T13:49:14.934Z,95423.84
2022-11-08T13:51:42.594Z,95422.41
2022-11-08T13:54:21.434Z,95430.16
2022-11-08T13:56:48.304Z,95429.50
2022-11-08T13:59:30.116Z,95419.97
2022-11-08T14:02:05.668Z,95420.34
2022-11-08T14:04:38.820Z,95430.22
2022-11-08T14:07:35.480Z,95434.31
2022-11-08T14:10:22.845Z,95425.50
2022-11-08T14:13:19.418Z,95425.88
2022-11-08T14:15:53.869Z,95421.63
2022-11-08T14:18:32.131Z,95410.53
2022-11-08T14:20:59.358Z,95420.28
2022-11-08T14:23:29.436Z,95423.81
2022-11-08T14:25:57.944Z,95417.03
2022-11-08T14:28:33.739Z,95431.53
2022-11-08T14:31:03.711Z,95420.88
2022-11-08T14:33:32.373Z,95434.03
2022-11-08T14:36:05.360Z,95432.91
2022-11-08T14:38:35.903Z,95440.09
2022-11-08T14:41:05.521Z,95428.75
2022-11-08T14:43:42.646Z,95440.03
2022-11-08T14:46:34.461Z,95441.19
2022-11-08T14:49:31.991Z,95435.56
2022-11-08T14:52:19.116Z,95439.22
2022-11-08T14:54:47.671Z,95437.88
2022-11-08T14:57:42.124Z,95436.59
2022-11-08T15:00:29.644Z,95443.81
2022-11-08T15:03:06.414Z,95446.47
2022-11-08T15:05:42.313Z,95439.75
2022-11-08T15:08:21.915Z,95436.34
2022-11-08T15:11:28.575Z,95434.00
2022-11-08T15:14:19.636Z,95429.28
2022-11-08T15:16:58.650Z,95425.69
2022-11-08T15:19:38.105Z,95425.84
2022-11-08T15:22:30.600Z,95421.78
2022-11-08T15:25:19.135Z,95430.97
2022-11-08T15:27:50.515Z,95435.19
2022-11-08T15:30:19.499Z,95418.75
2022-11-08T15:32:46.569Z,95428.09
2022-11-08T15:35:28.390Z,95432.34
2022-11-08T15:38:35.477Z,95430.91
2022-11-08T15:41:05.264Z,95437.50
2022-11-08T15:43:31.809Z,95442.09
2022-11-08T15:46:03.802Z,95438.63
2022-11-08T15:48:31.959Z,95439.88
2022-11-08T15:50:59.020Z,95437.94
2022-11-08T15:53:27.191Z,95440.09
2022-11-08T15:56:04.899Z,95435.84
2022-11-08T15:58:42.155Z,95450.81
2022-11-08T16:01:22.955Z,95452.97
2022-11-08T16:03:49.759Z,95448.94
2022-11-08T16:06:16.790Z,95441.78
2022-11-08T16:08:43.568Z,95454.00
2022-11-08T16:11:22.948Z,95445.94
2022-11-08T16:13:51.983Z,95447.91
2022-11-08T16:16:18.591Z,95451.00
2022-11-08T16:18:45.889Z,95451.28
2022-11-08T16:21:13.838Z,95453.84
2022-11-08T16:23:41.016Z,95446.09
2022-11-08T16:26:12.539Z,95445.09
2022-11-08T16:28:39.456Z,95449.16
2022-11-08T16:31:10.389Z,95452.13
2022-11-08T16:33:37.146Z,95458.53
2022-11-08T16:36:13.257Z,95453.66
2022-11-08T16:38:40.080Z,95455.66
2022-11-08T16:41:06.776Z,95468.88
2022-11-08T16:43:33.775Z,95476.94
2022-11-08T16:46:06.735Z,95476.78
2022-11-08T16:48:36.646Z,95465.69
2022-11-08T16:51:05.977Z,95471.63
2022-11-08T16:53:34.635Z,95465.44
2022-11-08T16:56:01.575Z,95475.00
2022-11-08T16:58:28.419Z,95478.34
2022-11-08T17:00:56.394Z,95489.13
2022-11-08T17:03:25.412Z,95487.00
2022-11-08T17:05:54.063Z,95482.91
2022-11-08T17:08:21.928Z,95490.22
2022-11-08T17:10:48.756Z,95472.13
2022-11-08T17:13:16.989Z,95481.53
2022-11-08T17:15:45.288Z,95473.34
2022-11-08T17:18:17.669Z,95487.16
2022-11-08T17:20:44.903Z,95492.31
2022-11-08T17:23:11.954Z,95486.66
2022-11-08T17:25:44.174Z,95465.72
2022-11-08T17:28:11.944Z,95505.63
2022-11-08T17:30:44.711Z,95509.09
2022-11-08T17:33:12.945Z,95487.34
2022-11-08T17:35:43.913Z,95504.22
2022-11-08T17:38:11.109Z,95503.94
2022-11-08T17:40:37.909Z,95498.50
2022-11-08T17:43:04.577Z,95504.84
2022-11-08T17:45:31.274Z,95490.28
2022-11-08T17:47:57.975Z,95505.47
2022-11-08T17:50:24.992Z,95490.75
2022-11-08T17:52:54.850Z,95494.34
2022-11-08T17:55:21.603Z,95499.41
2022-11-08T17:57:48.354Z,95502.44
2022-11-08T18:00:16.377Z,95486.22
2022-11-08T18:02:43.506Z,95493.78
2022-11-08T18:05:10.580Z,95497.28
2022-11-08T18:07:38.674Z,95495.31
2022-11-08T18:10:07.076Z,95498.03
2022-11-08T18:12:34.008Z,95492.56
2022-11-08T18:15:01.228Z,95499.88
2022-11-08T18:17:28.192Z,95501.84
2022-11-08T18:19:54.921Z,95497.16
2022-11-08T18:22:21.654Z,95498.66
2022-11-08T18:24:50.059Z,95499.00
2022-11-08T18:27:17.170Z,95488.97
2022-11-08T18:29:43.980Z,95502.31
2022-11-08T18:32:10.785Z,95502.50
2022-11-08T18:34:40.147Z,95497.31
2022-11-08T18:37:06.738Z,95496.28
2022-11-08T18:39:33.738Z,95490.81
2022-11-08T18:42:00.378Z,95485.47
2022-11-08T18:44:27.006Z,95496.41
2022-11-08T18:46:53.905Z,95504.13
2022-11-08T18:49:20.700Z,95500.19
2022-11-08T18:51:52.118Z,95486.69
2022-11-08T18:54:19.855Z,95512.94
2022-11-08T18:56:46.486Z,95512.03
2022-11-08T18:59:13.259Z,95500.81
2022-11-08T19:01:39.927Z,95515.81
2022-11-08T19:04:06.790Z,95486.25
2022-11-08T19:06:33.506Z,95519.63
2022-11-08T19:09:00.307Z,95519.47
2022-11-08T19:11:30.841Z,95518.88
2022-11-08T19:13:58.966Z,95519.00
2022-11-08T19:16:25.690Z,95520.53
2022-11-08T19:18:52.434Z,95521.16
2022-11-08T19:21:22.956Z,95517.66
2022-11-08T19:23:50.779Z,95522.66
2022-11-08T19:26:22.922Z,95519.94
2022-11-08T19:28:50.198Z,95531.59
2022-11-08T19:31:19.619Z,95523.09
2022-11-08T19:33:47.504Z,95535.09
2022-11-08T19:36:20.987Z,95536.00
2022-11-08T19:38:47.915Z,95521.88
2022-11-08T19:41:17.012Z,95540.66
2022-11-08T19:43:44.315Z,95543.38
2022-11-08T19:46:15.052Z,95554.09
2022-11-08T19:48:43.969Z,95547.06
2022-11-08T19:51:14.941Z,95538.28
2022-11-08T19:53:44.810Z,95554.16
2022-11-08T19:56:16.997Z,95541.50
2022-11-08T19:58:44.130Z,95540.00
2022-11-08T20:01:17.627Z,95553.84
2022-11-08T20:03:45.342Z,95538.25
2022-11-08T20:06:13.840Z,95547.81
2022-11-08T20:08:40.681Z,95553.06
2022-11-08T20:11:15.455Z,95539.25
2022-11-08T20:13:42.578Z,95556.50
2022-11-08T20:16:11.571Z,95557.41
2022-11-08T20:18:38.664Z,95553.72
2022-11-08T20:21:09.427Z,95548.91
2022-11-08T20:23:36.501Z,95563.22
2022-11-08T20:26:05.164Z,95555.28
2022-11-08T20:28:32.196Z,95563.88
2022-11-08T20:31:03.942Z,95555.50
2022-11-08T20:33:33.448Z,95557.88
2022-11-08T20:36:19.452Z,95548.19
2022-11-08T20:38:48.540Z,95567.72
2022-11-08T20:41:17.388Z,95565.19
2022-11-08T20:43:45.986Z,95566.69
2022-11-08T20:46:13.734Z,95567.78
2022-11-08T20:48:42.794Z,95546.75
2022-11-08T20:51:13.826Z,95559.59
2022-11-08T20:53:42.181Z,95569.50
2022-11-08T20:56:12.512Z,95569.19
2022-11-08T20:58:39.259Z,95566.38
2022-11-08T21:01:07.777Z,95557.00
2022-11-08T21:03:35.353Z,95565.31
2022-11-08T21:06:05.117Z,95572.22
2022-11-08T21:11:19.701Z,95554.09
2022-11-08T21:13:46.983Z,95571.19
2022-11-08T21:16:29.267Z,95565.03
2022-11-08T21:18:58.509Z,95563.75
2022-11-08T21:21:25.906Z,95566.41
2022-11-08T21:23:54.798Z,95566.31
2022-11-08T21:26:22.536Z,95565.84
2022-11-08T21:28:49.227Z,95558.03
2022-11-08T21:31:16.218Z,95545.09
2022-11-08T21:33:43.098Z,95559.63
2022-11-08T21:36:10.946Z,95548.13
2022-11-08T21:38:39.357Z,95560.41
2022-11-08T21:41:08.081Z,95556.28
2022-11-08T21:43:39.822Z,95563.88
2022-11-08T21:46:21.008Z,95555.75
2022-11-08T21:48:52.281Z,95559.66
2022-11-08T21:51:18.871Z,95566.75
2022-11-08T21:53:53.860Z,95564.78
2022-11-08T21:56:22.686Z,95566.63
2022-11-08T21:58:49.452Z,95563.78
2022-11-08T22:01:16.823Z,95554.66
2022-11-08T22:03:43.595Z,95558.25
2022-11-08T22:06:10.326Z,95578.16
2022-11-08T22:08:36.963Z,95562.72
2022-11-08T22:11:03.809Z,95575.56
2022-11-08T22:13:30.386Z,95581.44
2022-11-08T22:15:57.103Z,95575.88
2022-11-08T22:18:36.832Z,95577.41
2022-11-08T22:21:29.184Z,95563.47
2022-11-08T22:23:55.950Z,95564.38
2022-11-08T22:26:22.579Z,95569.69
2022-11-08T22:28:49.233Z,95558.59
2022-11-08T22:31:15.983Z,95568.16
2022-11-08T22:33:42.765Z,95557.94
2022-11-08T22:36:09.657Z,95572.84
2022-11-08T22:38:36.472Z,95548.34
2022-11-08T22:41:03.626Z,95570.88
2022-11-08T22:43:30.878Z,95572.63
2022-11-08T22:45:57.525Z,95572.09
2022-11-08T22:48:24.128Z,95570.44
2022-11-08T22:50:50.737Z,95560.63
2022-11-08T22:53:17.793Z,95565.97
2022-11-08T22:55:45.304Z,95561.59
2022-11-08T22:58:13.589Z,95562.69
2022-11-08T23:03:21.409Z,95569.78
2022-11-08T23:05:52.734Z,95568.25
2022-11-08T23:08:20.298Z,95565.63
2022-11-08T23:11:06.051Z,95564.84
2022-11-08T23:13:51.664Z,95567.56
2022-11-08T23:16:37.616Z,95563.16
2022-11-08T23:19:51.987Z,95563.78
2022-11-08T23:22:37.876Z,95576.31
2022-11-08T23:25:05.064Z,95560.53
2022-11-08T23:27:50.213Z,95564.34
2022-11-08T23:30:37.343Z,95536.94
2022-11-08T23:33:06.551Z,95577.06
2022-11-08T23:35:33.697Z,95564.56
2022-11-08T23:38:00.314Z,95570.88
2022-11-08T23:40:45.580Z,95566.97
2022-11-08T23:43:36.086Z,95576.44
2022-11-08T23:46:12.639Z,95567.19
2022-11-08T23:48:40.735Z,95582.28
2022-11-08T23:51:07.898Z,95554.25
2022-11-08T23:53:37.151Z,95584.25
2022-11-08T23:56:04.336Z,95572.50
2022-11-08T23:58:32.265Z,95586.97
